Terminal Aerodrome Forecast
Issued by NWS

Home | Current Version | Previous Version | Text Only | Print | Product List | Glossary On
Versions: 1 2 3 4 5 6 7 8 9 10 11 12 13 14 15
000
FTUS45 KABQ 201100
TAFGUP
TAF
KGUP 201125Z 2012/2112 00000KT P6SM SKC
      TEMPO 2012/2014 3SM BR SCT002
     FM201700 08006KT P6SM SCT040
     FM202000 09006KT P6SM VCSH BKN060
     FM210300 VRB03KT P6SM BKN070=

USA.gov is the U.S. government's official web portal to all federal, state and local government web resources and services.